West Rush, New York
Current Conditions -  °F | °C
As of 8:54 PM on Tuesday 21 Oct 2014 (Local Time) from KROC Reporting Station
Light Rain Light Rain  
Wind Chill: 40°   Ceiling: 700
Heat Index: 47°   Visibility: 7mi
Dew Point: 45°   Wind: 16mph
Humidity: 93%   Direction: 40°NE
Pressure: 30.03"   Gusts: NA
Location:  42.9942°N, 77.6714°W
Report Text: KROC 220054Z 04014KT 7SM -RA OVC007 08/07 A3003 RMK AO2 CIG 006V011 SLP176 P0000 T00830072
Loading
Personal Weather Stations






























Interactive Weather Map New forecast layout! Learn more

10-Day Weather Forecast

Advertisements
Track Severe Weather on mobile